Time;durP1;ratioP1;P1;durP2;ratioP2;P2;SDS_P1;SDS_P2;PMS_P1;PMS_P2;Temp;Humidity;BMP_temperature;BMP_pressure;BME280_temperature;BME280_humidity;BME280_pressure;Samples;Min_cycle;Max_cycle;Signal;HPM_P1;HPM_P2
2023/03/06 00:02:25;;;;;;;6.07;0.70;;;;;;;;;;4977969;28;20045;-73
2023/03/06 00:04:52;;;;;;;3.70;0.52;;;;;;;;;;4976919;28;20058;-72
2023/03/06 00:07:21;;;;;;;4.00;0.70;;;;;;;;;;4984537;28;20100;-73
2023/03/06 00:09:48;;;;;;;5.05;0.90;;;;;;;;;;4999233;28;20042;-73
2023/03/06 00:12:15;;;;;;;3.67;0.70;;;;;;;;;;4992141;28;20046;-72
2023/03/06 00:14:43;;;;;;;6.63;1.00;;;;;;;;;;4999667;28;20061;-72
2023/03/06 00:17:10;;;;;;;3.58;0.85;;;;;;;;;;4982675;28;20054;-72
2023/03/06 00:19:37;;;;;;;6.70;1.10;;;;;;;;;;4979605;28;20104;-74
2023/03/06 00:22:04;;;;;;;9.13;0.98;;;;;;;;;;4979444;28;20042;-73
2023/03/06 00:24:33;;;;;;;5.40;0.80;;;;;;;;;;4981696;28;20054;-73
2023/03/06 00:27:00;;;;;;;6.88;1.58;;;;;;;;;;4984337;28;20117;-73
2023/03/06 00:29:28;;;;;;;7.78;0.90;;;;;;;;;;4975213;28;20050;-73
2023/03/06 00:31:55;;;;;;;3.45;0.60;;;;;;;;;;4980406;28;20042;-73
2023/03/06 00:34:22;;;;;;;5.75;0.90;;;;;;;;;;4976442;28;20137;-73
2023/03/06 00:36:50;;;;;;;1.40;0.40;;;;;;;;;;4977180;28;20069;-73
2023/03/06 00:39:17;;;;;;;11.23;0.80;;;;;;;;;;4994608;28;20372;-73
2023/03/06 00:41:45;;;;;;;6.82;0.85;;;;;;;;;;4977091;28;20042;-73
2023/03/06 00:44:13;;;;;;;2.95;0.70;;;;;;;;;;4977530;28;20053;-73
2023/03/06 00:46:40;;;;;;;3.03;0.40;;;;;;;;;;4982908;28;20050;-73
2023/03/06 00:49:07;;;;;;;4.28;0.40;;;;;;;;;;4977885;28;20050;-73
2023/03/06 00:51:34;;;;;;;3.00;0.50;;;;;;;;;;4979109;28;20050;-73
2023/03/06 00:54:02;;;;;;;2.15;0.50;;;;;;;;;;4980395;28;20069;-73
2023/03/06 00:56:29;;;;;;;2.33;0.30;;;;;;;;;;4979787;28;20058;-73
2023/03/06 00:58:58;;;;;;;6.20;1.85;;;;;;;;;;4980674;28;20058;-73
2023/03/06 01:01:25;;;;;;;4.72;0.30;;;;;;;;;;4993080;28;20046;-73
2023/03/06 01:03:52;;;;;;;10.45;0.52;;;;;;;;;;4979760;28;20054;-73
2023/03/06 01:06:20;;;;;;;3.13;0.25;;;;;;;;;;4977269;28;20452;-73
2023/03/06 01:08:47;;;;;;;1.67;0.20;;;;;;;;;;4979108;28;20524;-74
2023/03/06 01:11:14;;;;;;;5.95;0.30;;;;;;;;;;4971665;28;20058;-73
2023/03/06 01:13:43;;;;;;;2.10;0.10;;;;;;;;;;4978710;28;20093;-74
2023/03/06 01:16:13;;;;;;;4.75;0.22;;;;;;;;;;4974202;28;20166;-74
2023/03/06 01:18:40;;;;;;;0.25;0.08;;;;;;;;;;4977510;28;20073;-74
2023/03/06 01:21:08;;;;;;;2.33;0.30;;;;;;;;;;4973861;28;20058;-74
2023/03/06 01:23:35;;;;;;;1.60;0.10;;;;;;;;;;4998989;28;20076;-74
2023/03/06 01:26:03;;;;;;;3.45;0.10;;;;;;;;;;4977991;28;20086;-74
2023/03/06 01:28:30;;;;;;;0.75;0.17;;;;;;;;;;4980422;28;20046;-74
2023/03/06 01:30:58;;;;;;;5.03;0.32;;;;;;;;;;4975312;28;20401;-74
2023/03/06 01:33:26;;;;;;;2.97;0.10;;;;;;;;;;4975713;28;20049;-74
2023/03/06 01:35:54;;;;;;;3.35;0.10;;;;;;;;;;4973796;28;20058;-74
2023/03/06 01:38:22;;;;;;;1.88;0.20;;;;;;;;;;4975896;28;20482;-74
2023/03/06 01:40:49;;;;;;;8.75;0.50;;;;;;;;;;4977770;28;20156;-74
2023/03/06 01:43:26;;;;;;;0.60;0.20;;;;;;;;;;4997744;28;20049;-74
2023/03/06 01:46:14;;;;;;;2.80;0.22;;;;;;;;;;4978514;28;20410;-74
2023/03/06 01:48:43;;;;;;;0.73;0.17;;;;;;;;;;4969335;28;20066;-74
2023/03/06 01:51:11;;;;;;;3.60;0.20;;;;;;;;;;4978571;28;20057;-74
2023/03/06 01:53:39;;;;;;;2.47;0.15;;;;;;;;;;4977851;28;20058;-74
2023/03/06 01:56:07;;;;;;;0.98;0.08;;;;;;;;;;4977713;28;20046;-74
2023/03/06 01:58:34;;;;;;;2.17;0.10;;;;;;;;;;4963905;28;20438;-74
2023/03/06 02:01:01;;;;;;;0.30;0.00;;;;;;;;;;4976164;28;20410;-74
2023/03/06 02:03:29;;;;;;;2.03;0.08;;;;;;;;;;4984654;28;20565;-74
2023/03/06 02:05:58;;;;;;;0.80;0.10;;;;;;;;;;4984069;28;20053;-74
2023/03/06 02:08:27;;;;;;;1.23;0.10;;;;;;;;;;4983602;28;20512;-74
2023/03/06 02:10:58;;;;;;;4.63;0.30;;;;;;;;;;4976370;28;20105;-74
2023/03/06 02:13:25;;;;;;;1.55;0.20;;;;;;;;;;4977728;28;20045;-74
2023/03/06 02:15:53;;;;;;;3.17;0.57;;;;;;;;;;4983072;28;20068;-74
2023/03/06 02:18:20;;;;;;;2.95;0.20;;;;;;;;;;4981474;28;20050;-74
2023/03/06 02:20:50;;;;;;;0.68;0.35;;;;;;;;;;4984642;28;20533;-74
2023/03/06 02:23:22;;;;;;;0.60;0.20;;;;;;;;;;4985986;28;20116;-74
2023/03/06 02:25:52;;;;;;;4.13;0.47;;;;;;;;;;4983174;28;20401;-74
2023/03/06 02:28:21;;;;;;;2.55;0.20;;;;;;;;;;4986068;28;20077;-74
2023/03/06 02:30:49;;;;;;;2.63;0.30;;;;;;;;;;4980413;28;20125;-74
2023/03/06 02:33:17;;;;;;;2.22;0.30;;;;;;;;;;4985456;28;20485;-74
2023/03/06 02:35:47;;;;;;;3.05;0.40;;;;;;;;;;4970847;28;20071;-73
2023/03/06 02:38:16;;;;;;;1.05;0.20;;;;;;;;;;4974892;28;20059;-74
2023/03/06 02:40:44;;;;;;;0.65;0.20;;;;;;;;;;4975623;28;20047;-74
2023/03/06 02:43:13;;;;;;;2.78;0.30;;;;;;;;;;4972601;28;20042;-73
2023/03/06 02:45:43;;;;;;;2.50;0.50;;;;;;;;;;4970152;28;20050;-74
2023/03/06 02:48:11;;;;;;;2.67;0.35;;;;;;;;;;4975114;28;20047;-74
2023/03/06 02:50:38;;;;;;;1.67;0.30;;;;;;;;;;4975396;28;20059;-73
2023/03/06 02:53:06;;;;;;;1.55;0.30;;;;;;;;;;4965072;28;20413;-74
2023/03/06 02:55:33;;;;;;;1.08;0.30;;;;;;;;;;4976134;28;20490;-74
2023/03/06 02:58:01;;;;;;;1.38;0.40;;;;;;;;;;4978502;28;20051;-74
2023/03/06 03:00:29;;;;;;;0.43;0.20;;;;;;;;;;4977565;28;20073;-74
2023/03/06 03:02:57;;;;;;;1.67;0.30;;;;;;;;;;4969447;28;20061;-74
2023/03/06 03:05:24;;;;;;;5.75;0.35;;;;;;;;;;4973983;28;20050;-74
2023/03/06 03:07:52;;;;;;;1.77;0.40;;;;;;;;;;4974102;28;20069;-74
2023/03/06 03:10:19;;;;;;;3.92;0.35;;;;;;;;;;4974701;28;20137;-74
2023/03/06 03:12:46;;;;;;;0.70;0.20;;;;;;;;;;4970550;28;20494;-74
2023/03/06 03:15:14;;;;;;;0.40;0.40;;;;;;;;;;4971150;28;20053;-74
2023/03/06 03:17:42;;;;;;;0.40;0.30;;;;;;;;;;4968772;28;20055;-74
2023/03/06 03:20:12;;;;;;;0.65;0.28;;;;;;;;;;4977722;28;20054;-74
2023/03/06 03:22:40;;;;;;;2.75;0.40;;;;;;;;;;4971127;28;20038;-74
2023/03/06 03:25:07;;;;;;;2.55;0.30;;;;;;;;;;4975288;28;20050;-74
2023/03/06 03:27:35;;;;;;;0.60;0.30;;;;;;;;;;4968817;28;20101;-74
2023/03/06 03:30:03;;;;;;;0.98;0.40;;;;;;;;;;4980892;28;20050;-74
2023/03/06 03:32:30;;;;;;;1.15;0.50;;;;;;;;;;4973715;28;20059;-74
2023/03/06 03:34:59;;;;;;;2.70;0.50;;;;;;;;;;4977742;28;20521;-74
2023/03/06 03:37:26;;;;;;;2.13;0.35;;;;;;;;;;4979003;28;20566;-74
2023/03/06 03:39:53;;;;;;;3.88;0.50;;;;;;;;;;4981512;28;20056;-74
2023/03/06 03:42:21;;;;;;;2.75;0.50;;;;;;;;;;4977026;28;20046;-74
2023/03/06 03:44:48;;;;;;;0.65;0.32;;;;;;;;;;4977603;28;20473;-74
2023/03/06 03:47:15;;;;;;;3.95;0.38;;;;;;;;;;4977712;28;20452;-74
2023/03/06 03:49:42;;;;;;;2.63;0.40;;;;;;;;;;4977131;28;20112;-74
2023/03/06 03:52:11;;;;;;;1.00;0.50;;;;;;;;;;4976665;28;20352;-74
2023/03/06 03:54:38;;;;;;;1.60;0.70;;;;;;;;;;4977271;28;20057;-74
2023/03/06 03:57:06;;;;;;;4.93;1.20;;;;;;;;;;4972680;28;20061;-74
2023/03/06 03:59:33;;;;;;;2.40;0.85;;;;;;;;;;4977817;28;20447;-74
2023/03/06 04:02:03;;;;;;;1.25;0.85;;;;;;;;;;4982300;28;20052;-74
2023/03/06 04:04:30;;;;;;;3.35;0.80;;;;;;;;;;4978706;28;20081;-74
2023/03/06 04:06:58;;;;;;;2.08;0.90;;;;;;;;;;4978318;28;20073;-74
2023/03/06 04:09:26;;;;;;;1.55;0.85;;;;;;;;;;4983186;28;20062;-74
2023/03/06 04:11:53;;;;;;;3.25;0.82;;;;;;;;;;4983263;28;20056;-74
2023/03/06 04:14:21;;;;;;;3.17;0.88;;;;;;;;;;4985295;28;20493;-74
2023/03/06 04:16:48;;;;;;;4.15;0.65;;;;;;;;;;4984766;28;20057;-74
2023/03/06 04:19:15;;;;;;;1.88;0.60;;;;;;;;;;4980443;28;20379;-74
2023/03/06 04:21:43;;;;;;;1.48;0.68;;;;;;;;;;4985044;28;20038;-74
2023/03/06 04:24:10;;;;;;;2.63;0.80;;;;;;;;;;4982619;28;20058;-74
2023/03/06 04:26:38;;;;;;;4.03;0.90;;;;;;;;;;4984399;28;20060;-74
2023/03/06 04:29:06;;;;;;;3.88;0.95;;;;;;;;;;4981672;28;20046;-74
2023/03/06 04:31:33;;;;;;;4.28;0.60;;;;;;;;;;4985090;28;20046;-74
2023/03/06 04:34:00;;;;;;;3.78;0.63;;;;;;;;;;4982811;28;20050;-74
2023/03/06 04:36:29;;;;;;;1.77;0.68;;;;;;;;;;4979421;28;20695;-74
2023/03/06 04:38:56;;;;;;;2.67;0.70;;;;;;;;;;4982865;28;20520;-74
2023/03/06 04:41:23;;;;;;;3.35;0.70;;;;;;;;;;4986493;28;20057;-74
2023/03/06 04:43:52;;;;;;;1.42;0.60;;;;;;;;;;4979780;28;20153;-74
2023/03/06 04:46:20;;;;;;;2.58;0.70;;;;;;;;;;4981788;28;20052;-74
2023/03/06 04:48:47;;;;;;;2.13;0.85;;;;;;;;;;4980768;28;20073;-74
2023/03/06 04:51:15;;;;;;;3.25;0.50;;;;;;;;;;4979534;28;20516;-75
2023/03/06 04:53:42;;;;;;;1.13;0.70;;;;;;;;;;4978059;28;20073;-74
2023/03/06 04:56:10;;;;;;;1.15;0.50;;;;;;;;;;4983800;28;20065;-74
2023/03/06 04:58:37;;;;;;;1.30;0.65;;;;;;;;;;4979171;28;20600;-74
2023/03/06 05:01:06;;;;;;;2.45;0.82;;;;;;;;;;4977803;28;20042;-74
2023/03/06 05:03:33;;;;;;;2.15;0.90;;;;;;;;;;4976147;28;20471;-74
2023/03/06 05:06:00;;;;;;;2.33;0.70;;;;;;;;;;4976138;28;20528;-74
2023/03/06 05:08:28;;;;;;;2.15;0.60;;;;;;;;;;4978931;28;20053;-74
2023/03/06 05:10:56;;;;;;;3.10;0.70;;;;;;;;;;4979977;28;20061;-74
2023/03/06 05:13:23;;;;;;;0.98;0.60;;;;;;;;;;4973252;28;20099;-74
2023/03/06 05:15:51;;;;;;;2.88;0.70;;;;;;;;;;4982026;28;20141;-74
2023/03/06 05:18:19;;;;;;;3.90;0.80;;;;;;;;;;4987958;28;20062;-74
2023/03/06 05:20:47;;;;;;;5.45;0.50;;;;;;;;;;4975519;28;20050;-74
2023/03/06 05:23:14;;;;;;;4.53;0.70;;;;;;;;;;4980588;28;20049;-74
2023/03/06 05:25:41;;;;;;;2.17;0.75;;;;;;;;;;4984232;28;20062;-74
2023/03/06 05:28:08;;;;;;;2.63;0.60;;;;;;;;;;4984828;28;20405;-74
2023/03/06 05:30:36;;;;;;;8.32;1.05;;;;;;;;;;4983224;28;20830;-74
2023/03/06 05:33:03;;;;;;;3.75;0.50;;;;;;;;;;4986193;28;20049;-74
2023/03/06 05:35:32;;;;;;;2.80;0.30;;;;;;;;;;4981496;28;20090;-74
2023/03/06 05:37:59;;;;;;;5.20;0.38;;;;;;;;;;4978601;28;20054;-74
2023/03/06 05:40:26;;;;;;;4.97;0.40;;;;;;;;;;4979700;28;20069;-74
2023/03/06 05:42:54;;;;;;;5.72;0.40;;;;;;;;;;4981957;28;20406;-74
2023/03/06 05:45:22;;;;;;;5.60;0.40;;;;;;;;;;4979115;28;20050;-74
2023/03/06 05:47:49;;;;;;;2.40;0.35;;;;;;;;;;4985549;28;20064;-74
2023/03/06 05:50:16;;;;;;;5.07;0.40;;;;;;;;;;4980410;28;20050;-74
2023/03/06 05:52:45;;;;;;;6.22;0.50;;;;;;;;;;4982638;28;20046;-74
2023/03/06 05:55:14;;;;;;;5.47;0.50;;;;;;;;;;4978562;28;20409;-74
2023/03/06 05:57:41;;;;;;;3.70;0.40;;;;;;;;;;4984876;28;20058;-74
2023/03/06 06:00:10;;;;;;;1.15;0.30;;;;;;;;;;4980223;28;20053;-74
2023/03/06 06:02:37;;;;;;;3.42;0.45;;;;;;;;;;4981653;28;20408;-74
2023/03/06 06:05:04;;;;;;;2.85;0.50;;;;;;;;;;4980310;28;20073;-74
2023/03/06 06:07:32;;;;;;;8.43;0.65;;;;;;;;;;4981164;28;20079;-74
2023/03/06 06:10:00;;;;;;;4.82;0.52;;;;;;;;;;4978685;28;20051;-74
2023/03/06 06:12:28;;;;;;;2.83;0.40;;;;;;;;;;4979750;28;20046;-74
2023/03/06 06:14:55;;;;;;;2.95;0.65;;;;;;;;;;4978257;28;20050;-74
2023/03/06 06:17:22;;;;;;;3.15;0.73;;;;;;;;;;4980612;28;20054;-74
2023/03/06 06:19:50;;;;;;;2.08;0.50;;;;;;;;;;4975347;28;20080;-74
2023/03/06 06:22:17;;;;;;;2.78;0.70;;;;;;;;;;4991457;28;20532;-74
2023/03/06 06:24:44;;;;;;;6.22;0.80;;;;;;;;;;4977921;28;20046;-74
2023/03/06 06:27:13;;;;;;;2.92;0.60;;;;;;;;;;4974695;28;20057;-74
2023/03/06 06:29:40;;;;;;;12.02;1.30;;;;;;;;;;4974784;28;20057;-74
2023/03/06 06:32:07;;;;;;;2.58;0.75;;;;;;;;;;4972695;28;20057;-74
2023/03/06 06:34:35;;;;;;;9.90;0.63;;;;;;;;;;4978774;28;20058;-74
2023/03/06 06:37:02;;;;;;;2.60;0.55;;;;;;;;;;4973141;28;20054;-74
2023/03/06 06:39:29;;;;;;;12.05;1.13;;;;;;;;;;4983687;28;20042;-74
2023/03/06 06:41:56;;;;;;;3.78;0.85;;;;;;;;;;4981202;28;20054;-74
2023/03/06 06:44:25;;;;;;;4.75;0.60;;;;;;;;;;4979495;28;20050;-74
2023/03/06 06:46:52;;;;;;;2.45;0.70;;;;;;;;;;4972791;28;20558;-74
2023/03/06 06:49:19;;;;;;;2.92;0.50;;;;;;;;;;4973668;28;20062;-74
2023/03/06 06:51:47;;;;;;;4.57;1.00;;;;;;;;;;4971911;28;20081;-74
2023/03/06 06:54:14;;;;;;;2.33;0.70;;;;;;;;;;4971621;28;20053;-74
2023/03/06 06:56:41;;;;;;;6.68;1.02;;;;;;;;;;4975484;28;20053;-74
2023/03/06 06:59:08;;;;;;;7.07;1.10;;;;;;;;;;4973083;28;20050;-74
2023/03/06 07:01:37;;;;;;;2.17;1.08;;;;;;;;;;4975272;28;20065;-74
2023/03/06 07:04:04;;;;;;;2.08;1.00;;;;;;;;;;4970742;28;20046;-74
2023/03/06 07:06:32;;;;;;;5.32;0.95;;;;;;;;;;4991025;28;20057;-74
2023/03/06 07:08:59;;;;;;;6.00;1.70;;;;;;;;;;4981063;28;20521;-74
2023/03/06 07:11:26;;;;;;;6.32;1.80;;;;;;;;;;4977243;28;20050;-74
2023/03/06 07:13:54;;;;;;;6.82;1.92;;;;;;;;;;4982654;28;20042;-74
2023/03/06 07:16:22;;;;;;;8.82;1.48;;;;;;;;;;4976283;28;20121;-74
2023/03/06 07:18:50;;;;;;;5.75;1.20;;;;;;;;;;4981380;28;20060;-74
2023/03/06 07:21:18;;;;;;;4.47;1.27;;;;;;;;;;4981452;28;20410;-74
2023/03/06 07:23:45;;;;;;;6.85;1.23;;;;;;;;;;4983988;28;20062;-74
2023/03/06 07:26:12;;;;;;;4.07;1.02;;;;;;;;;;4977484;28;20100;-74
2023/03/06 07:28:40;;;;;;;7.63;1.00;;;;;;;;;;4972818;28;20078;-74
2023/03/06 07:31:10;;;;;;;5.38;1.15;;;;;;;;;;4974980;28;20576;-74
2023/03/06 07:33:37;;;;;;;3.63;1.00;;;;;;;;;;4974090;28;20058;-74
2023/03/06 07:36:08;;;;;;;5.45;1.10;;;;;;;;;;4983494;28;20138;-74
2023/03/06 07:38:36;;;;;;;4.35;1.30;;;;;;;;;;4981452;28;20149;-74
2023/03/06 07:41:03;;;;;;;3.00;1.30;;;;;;;;;;4980733;28;20053;-74
2023/03/06 07:43:31;;;;;;;4.55;2.08;;;;;;;;;;4974631;28;20520;-74
2023/03/06 07:45:59;;;;;;;6.45;2.80;;;;;;;;;;4983601;28;20575;-74
2023/03/06 07:48:26;;;;;;;3.80;1.48;;;;;;;;;;4976985;28;20096;-74
2023/03/06 07:50:57;;;;;;;7.03;1.23;;;;;;;;;;4982165;28;20052;-74
2023/03/06 07:53:26;;;;;;;5.75;0.70;;;;;;;;;;4975078;28;20047;-74
2023/03/06 07:55:53;;;;;;;7.15;1.10;;;;;;;;;;4978875;28;20489;-74
2023/03/06 07:58:20;;;;;;;2.85;0.50;;;;;;;;;;4976281;28;20414;-74
2023/03/06 08:00:48;;;;;;;3.47;1.05;;;;;;;;;;4978986;28;20133;-74
2023/03/06 08:03:16;;;;;;;3.15;0.90;;;;;;;;;;4975606;28;20482;-74
2023/03/06 08:05:43;;;;;;;12.48;0.90;;;;;;;;;;4983934;28;20417;-74
2023/03/06 08:08:11;;;;;;;4.10;0.80;;;;;;;;;;4988318;28;20471;-74
2023/03/06 08:10:40;;;;;;;4.43;1.00;;;;;;;;;;4976223;28;20064;-74
2023/03/06 08:13:07;;;;;;;9.45;0.90;;;;;;;;;;4971216;28;20133;-73
2023/03/06 08:15:34;;;;;;;4.25;0.80;;;;;;;;;;4978448;28;20054;-74
2023/03/06 08:18:01;;;;;;;4.55;0.73;;;;;;;;;;4975001;28;20084;-74
2023/03/06 08:20:29;;;;;;;5.47;0.77;;;;;;;;;;4973999;28;20054;-74
2023/03/06 08:22:56;;;;;;;4.05;1.23;;;;;;;;;;4974549;28;20054;-74
2023/03/06 08:25:24;;;;;;;8.38;1.25;;;;;;;;;;4976170;28;20129;-73
2023/03/06 08:27:53;;;;;;;7.93;0.63;;;;;;;;;;4976609;28;20057;-73
2023/03/06 08:30:20;;;;;;;2.83;1.02;;;;;;;;;;4980336;28;20042;-73
2023/03/06 08:32:48;;;;;;;4.70;0.98;;;;;;;;;;5000922;28;20046;-73
2023/03/06 08:35:15;;;;;;;5.55;0.60;;;;;;;;;;4976328;28;20053;-73
2023/03/06 08:37:43;;;;;;;3.42;0.68;;;;;;;;;;4988639;28;20050;-74
2023/03/06 08:40:11;;;;;;;3.63;0.82;;;;;;;;;;4986743;28;20108;-73
2023/03/06 08:42:38;;;;;;;3.45;0.68;;;;;;;;;;4982701;28;20136;-73
2023/03/06 08:45:07;;;;;;;9.70;1.25;;;;;;;;;;4981668;28;20069;-73
2023/03/06 08:47:35;;;;;;;4.70;0.77;;;;;;;;;;4986419;28;20092;-73
2023/03/06 08:50:02;;;;;;;6.00;0.93;;;;;;;;;;4981115;28;20116;-74
2023/03/06 08:52:30;;;;;;;2.47;0.68;;;;;;;;;;4982017;28;20058;-73
2023/03/06 08:55:02;;;;;;;4.10;0.60;;;;;;;;;;4980312;28;20042;-73
2023/03/06 08:57:29;;;;;;;3.95;0.80;;;;;;;;;;4982688;28;20062;-73
2023/03/06 08:59:56;;;;;;;7.53;1.23;;;;;;;;;;4981097;28;20058;-73
2023/03/06 09:02:25;;;;;;;3.70;0.88;;;;;;;;;;4986142;28;20042;-73
2023/03/06 09:04:52;;;;;;;5.82;0.70;;;;;;;;;;4986093;28;20058;-73
2023/03/06 09:07:20;;;;;;;3.17;0.73;;;;;;;;;;4986596;28;20049;-73
2023/03/06 09:09:47;;;;;;;6.28;0.90;;;;;;;;;;4980333;28;20050;-73
2023/03/06 09:12:14;;;;;;;8.88;0.60;;;;;;;;;;4986316;28;20552;-73
2023/03/06 09:14:41;;;;;;;6.43;0.52;;;;;;;;;;4997781;28;20054;-73
2023/03/06 09:17:09;;;;;;;3.22;0.50;;;;;;;;;;4982654;28;20077;-73
2023/03/06 09:19:38;;;;;;;5.13;1.13;;;;;;;;;;4983838;28;20057;-73
2023/03/06 09:22:05;;;;;;;3.75;0.50;;;;;;;;;;4986947;28;20531;-73
2023/03/06 09:24:32;;;;;;;2.13;0.45;;;;;;;;;;4982937;28;20050;-73
2023/03/06 09:27:00;;;;;;;3.75;0.45;;;;;;;;;;4983588;28;20057;-73
2023/03/06 09:29:28;;;;;;;2.72;0.60;;;;;;;;;;4981086;28;20050;-73
2023/03/06 09:31:55;;;;;;;3.40;0.40;;;;;;;;;;4985640;28;20129;-72
2023/03/06 09:34:22;;;;;;;3.00;0.52;;;;;;;;;;4979786;28;20042;-72
2023/03/06 09:36:51;;;;;;;4.43;0.40;;;;;;;;;;4976423;28;20077;-73
2023/03/06 09:39:18;;;;;;;3.33;0.30;;;;;;;;;;5003068;28;20041;-72
2023/03/06 09:41:46;;;;;;;3.72;0.40;;;;;;;;;;4983220;28;20060;-73
2023/03/06 09:44:15;;;;;;;3.47;0.40;;;;;;;;;;4995892;28;20093;-72
2023/03/06 09:46:46;;;;;;;1.75;0.40;;;;;;;;;;4989026;28;20490;-73
2023/03/06 09:49:32;;;;;;;2.83;0.50;;;;;;;;;;4984989;28;20050;-73
2023/03/06 09:52:04;;;;;;;4.57;0.30;;;;;;;;;;4991399;28;20050;-73
2023/03/06 09:54:34;;;;;;;4.30;0.35;;;;;;;;;;4975387;28;20062;-73
2023/03/06 09:57:02;;;;;;;4.03;0.40;;;;;;;;;;4999020;28;20061;-73
2023/03/06 09:59:29;;;;;;;3.55;0.38;;;;;;;;;;4986666;28;20050;-73
2023/03/06 10:02:00;;;;;;;5.65;0.57;;;;;;;;;;4998122;28;20521;-73
2023/03/06 10:04:34;;;;;;;5.45;0.77;;;;;;;;;;4977391;28;20405;-73
2023/03/06 10:07:06;;;;;;;1.85;0.32;;;;;;;;;;4980051;28;20417;-73
2023/03/06 10:09:39;;;;;;;6.60;0.28;;;;;;;;;;4991595;28;20042;-73
2023/03/06 10:12:13;;;;;;;4.22;0.43;;;;;;;;;;4984997;28;20053;-72
2023/03/06 10:14:43;;;;;;;3.95;0.30;;;;;;;;;;4997229;28;20050;-73
2023/03/06 10:17:15;;;;;;;2.72;0.30;;;;;;;;;;4980098;28;20124;-73
2023/03/06 10:19:42;;;;;;;9.70;0.85;;;;;;;;;;4992399;28;20141;-73
2023/03/06 10:22:20;;;;;;;3.15;0.90;;;;;;;;;;4995876;28;20054;-73
2023/03/06 10:24:49;;;;;;;3.05;0.38;;;;;;;;;;4995612;28;20058;-73
2023/03/06 10:27:22;;;;;;;5.10;0.43;;;;;;;;;;4984965;28;20396;-72
2023/03/06 10:29:52;;;;;;;7.28;0.57;;;;;;;;;;4988582;28;20452;-72
2023/03/06 10:32:25;;;;;;;2.00;0.40;;;;;;;;;;4983713;28;20078;-72
2023/03/06 10:34:53;;;;;;;1.33;0.20;;;;;;;;;;4982551;28;20120;-72
2023/03/06 10:37:23;;;;;;;2.45;0.30;;;;;;;;;;4978669;28;20076;-73
2023/03/06 10:39:53;;;;;;;3.40;0.43;;;;;;;;;;4982194;28;20076;-73
2023/03/06 10:42:20;;;;;;;12.57;1.15;;;;;;;;;;4975789;28;20105;-73
2023/03/06 10:44:47;;;;;;;3.00;0.28;;;;;;;;;;4998451;28;20072;-73
2023/03/06 10:47:29;;;;;;;6.47;0.30;;;;;;;;;;5001807;28;20404;-72
2023/03/06 10:50:00;;;;;;;2.25;0.30;;;;;;;;;;4978274;28;20054;-73
2023/03/06 10:52:31;;;;;;;1.92;0.30;;;;;;;;;;4997258;28;20041;-73
2023/03/06 10:55:23;;;;;;;2.15;0.50;;;;;;;;;;4997761;28;20050;-72
2023/03/06 10:57:50;;;;;;;4.47;0.30;;;;;;;;;;4984663;28;20076;-72
2023/03/06 11:00:25;;;;;;;2.83;0.40;;;;;;;;;;4994207;28;20046;-72
2023/03/06 11:03:04;;;;;;;2.75;0.40;;;;;;;;;;4985728;28;20054;-72
2023/03/06 11:05:32;;;;;;;3.25;0.32;;;;;;;;;;4984830;28;20064;-72
2023/03/06 11:08:01;;;;;;;2.63;0.30;;;;;;;;;;4977934;28;20445;-72
2023/03/06 11:10:28;;;;;;;3.85;0.30;;;;;;;;;;4996012;28;20045;-72
2023/03/06 11:12:57;;;;;;;4.25;0.30;;;;;;;;;;4991556;28;20391;-72
2023/03/06 11:15:25;;;;;;;2.30;0.30;;;;;;;;;;4996408;28;20524;-72
2023/03/06 11:17:55;;;;;;;5.40;0.32;;;;;;;;;;4976817;28;20046;-72
2023/03/06 11:20:23;;;;;;;4.60;0.50;;;;;;;;;;4993857;28;20409;-72
2023/03/06 11:22:53;;;;;;;4.95;0.82;;;;;;;;;;4980062;28;20089;-72
2023/03/06 11:25:23;;;;;;;2.70;0.30;;;;;;;;;;4986680;28;20046;-72
2023/03/06 11:27:55;;;;;;;1.70;0.30;;;;;;;;;;4981465;28;20050;-72
2023/03/06 11:30:25;;;;;;;2.10;0.20;;;;;;;;;;5001301;28;20402;-72
2023/03/06 11:32:54;;;;;;;2.03;0.40;;;;;;;;;;5001633;28;20092;-72
2023/03/06 11:35:23;;;;;;;1.95;0.10;;;;;;;;;;4993108;28;21372;-72
2023/03/06 11:37:53;;;;;;;3.50;0.40;;;;;;;;;;4984198;28;20475;-72
2023/03/06 11:40:25;;;;;;;2.17;0.40;;;;;;;;;;4977440;28;20097;-72
2023/03/06 11:42:56;;;;;;;3.50;0.38;;;;;;;;;;4983595;28;20072;-72
2023/03/06 11:45:25;;;;;;;2.47;0.32;;;;;;;;;;4995730;28;20453;-72
2023/03/06 11:47:55;;;;;;;1.70;0.20;;;;;;;;;;4982186;28;20057;-71
2023/03/06 11:50:26;;;;;;;4.85;0.40;;;;;;;;;;4991651;28;20078;-72
2023/03/06 11:52:54;;;;;;;1.00;0.20;;;;;;;;;;4980473;28;20062;-72
2023/03/06 11:55:32;;;;;;;0.77;0.20;;;;;;;;;;4984549;28;20112;-72
2023/03/06 11:58:06;;;;;;;2.10;0.30;;;;;;;;;;5003958;28;20054;-72
2023/03/06 12:00:46;;;;;;;2.10;0.32;;;;;;;;;;4985058;28;20060;-72
2023/03/06 12:03:25;;;;;;;1.48;0.20;;;;;;;;;;5002934;28;20057;-72
2023/03/06 12:05:57;;;;;;;2.92;0.50;;;;;;;;;;4987732;28;20065;-71
2023/03/06 12:08:30;;;;;;;1.60;0.20;;;;;;;;;;4998434;28;20176;-71
2023/03/06 12:11:03;;;;;;;3.75;0.30;;;;;;;;;;5000401;28;20061;-72
2023/03/06 12:13:35;;;;;;;3.90;0.30;;;;;;;;;;5001373;28;20081;-72
2023/03/06 12:16:07;;;;;;;2.28;0.20;;;;;;;;;;4982479;28;20090;-72
2023/03/06 12:18:37;;;;;;;3.17;0.30;;;;;;;;;;4986775;28;20524;-72
2023/03/06 12:21:07;;;;;;;3.35;0.30;;;;;;;;;;4992535;28;20046;-72
2023/03/06 12:23:56;;;;;;;1.92;0.20;;;;;;;;;;4996963;28;20561;-72
2023/03/06 12:26:36;;;;;;;2.33;0.40;;;;;;;;;;4977556;28;20133;-72
2023/03/06 12:29:12;;;;;;;4.05;0.50;;;;;;;;;;4978859;28;20046;-72
2023/03/06 12:31:45;;;;;;;3.80;0.30;;;;;;;;;;5002773;28;20535;-71
2023/03/06 12:34:18;;;;;;;1.88;0.60;;;;;;;;;;4996880;28;20400;-72
2023/03/06 12:36:51;;;;;;;2.60;0.40;;;;;;;;;;4955090;28;1152426;-71
2023/03/06 12:39:22;;;;;;;2.57;0.50;;;;;;;;;;4984385;28;20068;-72
2023/03/06 12:42:09;;;;;;;3.38;0.73;;;;;;;;;;4997716;28;20294;-71
2023/03/06 12:44:45;;;;;;;2.63;0.43;;;;;;;;;;4992463;28;20137;-72
2023/03/06 12:47:14;;;;;;;3.03;0.75;;;;;;;;;;4981189;28;20481;-72
2023/03/06 12:49:43;;;;;;;2.83;0.30;;;;;;;;;;4985077;28;20413;-72
2023/03/06 12:52:18;;;;;;;2.55;0.50;;;;;;;;;;4979981;28;20054;-72
2023/03/06 12:54:45;;;;;;;2.95;0.50;;;;;;;;;;5003112;28;20049;-72
2023/03/06 12:57:15;;;;;;;2.22;0.30;;;;;;;;;;5005373;28;20073;-72
2023/03/06 12:59:46;;;;;;;4.50;0.45;;;;;;;;;;4984688;28;20054;-71
2023/03/06 13:02:31;;;;;;;3.15;0.20;;;;;;;;;;5004206;28;20398;-72
2023/03/06 13:05:07;;;;;;;2.65;0.55;;;;;;;;;;4976908;28;20601;-72
2023/03/06 13:07:40;;;;;;;3.97;0.65;;;;;;;;;;4988574;28;20045;-72
2023/03/06 13:10:16;;;;;;;2.25;0.38;;;;;;;;;;4996978;28;20100;-72
2023/03/06 13:12:53;;;;;;;3.00;0.40;;;;;;;;;;5004314;28;20061;-71
2023/03/06 13:15:38;;;;;;;3.15;0.40;;;;;;;;;;4999541;28;20519;-71
2023/03/06 13:18:24;;;;;;;3.47;0.40;;;;;;;;;;4975244;28;20058;-71
2023/03/06 13:20:51;;;;;;;6.88;0.60;;;;;;;;;;4980228;28;20062;-72
2023/03/06 13:23:38;;;;;;;1.92;0.43;;;;;;;;;;4987785;28;20060;-71
2023/03/06 13:26:06;;;;;;;2.80;0.57;;;;;;;;;;5004614;28;20038;-72
2023/03/06 13:28:43;;;;;;;3.38;0.63;;;;;;;;;;5003878;28;20060;-72
2023/03/06 13:31:11;;;;;;;3.40;0.90;;;;;;;;;;4982264;28;20054;-72
2023/03/06 13:33:53;;;;;;;3.90;0.80;;;;;;;;;;4985320;28;20054;-71
2023/03/06 13:36:21;;;;;;;2.58;0.68;;;;;;;;;;4973669;28;20490;-71
2023/03/06 13:38:56;;;;;;;3.05;0.90;;;;;;;;;;4994235;28;20080;-71
2023/03/06 13:41:33;;;;;;;4.10;0.68;;;;;;;;;;4996269;28;20132;-71
2023/03/06 13:44:03;;;;;;;3.83;0.60;;;;;;;;;;4977844;28;20061;-72
2023/03/06 13:46:34;;;;;;;3.63;0.60;;;;;;;;;;4981178;28;20063;-72
2023/03/06 13:49:14;;;;;;;4.00;0.93;;;;;;;;;;4979347;28;20123;-72
2023/03/06 13:51:43;;;;;;;5.50;1.25;;;;;;;;;;4977543;28;20577;-71
2023/03/06 13:54:18;;;;;;;1.67;0.60;;;;;;;;;;4981494;28;20046;-72
2023/03/06 13:56:55;;;;;;;6.70;0.68;;;;;;;;;;4993639;28;20042;-71
2023/03/06 13:59:31;;;;;;;5.22;1.27;;;;;;;;;;4992536;28;21303;-71
2023/03/06 14:02:03;;;;;;;5.07;0.98;;;;;;;;;;4982770;28;20057;-71
2023/03/06 14:04:36;;;;;;;7.70;0.70;;;;;;;;;;4990329;28;20493;-72
2023/03/06 14:07:10;;;;;;;4.90;1.40;;;;;;;;;;4999060;28;20081;-72
2023/03/06 14:09:37;;;;;;;;;;;;;;;;;;4992621;28;20060;-71
2023/03/06 14:12:06;;;;;;;7.35;0.65;;;;;;;;;;4999724;28;19922;-72
2023/03/06 14:14:41;;;;;;;4.75;1.30;;;;;;;;;;4992827;28;20058;-71
2023/03/06 14:17:19;;;;;;;5.00;0.77;;;;;;;;;;4980883;28;20053;-72
2023/03/06 14:19:46;;;;;;;6.22;0.90;;;;;;;;;;4995082;28;20157;-71
2023/03/06 14:22:16;;;;;;;2.10;0.65;;;;;;;;;;4982581;28;20061;-71
2023/03/06 14:24:45;;;;;;;2.53;0.63;;;;;;;;;;4990899;28;20058;-71
2023/03/06 14:27:18;;;;;;;4.32;0.60;;;;;;;;;;4992460;28;20050;-71
2023/03/06 14:29:47;;;;;;;3.35;0.65;;;;;;;;;;4998942;28;20076;-71
2023/03/06 14:32:17;;;;;;;3.00;0.80;;;;;;;;;;4989702;28;20052;-71
2023/03/06 14:34:45;;;;;;;2.80;0.80;;;;;;;;;;4987786;28;20113;-71
2023/03/06 14:37:20;;;;;;;3.42;0.77;;;;;;;;;;4996006;28;20089;-72
2023/03/06 14:39:47;;;;;;;4.72;0.77;;;;;;;;;;4985534;28;20064;-71
2023/03/06 14:42:17;;;;;;;5.93;0.80;;;;;;;;;;5001843;28;20081;-72
2023/03/06 14:44:45;;;;;;;3.47;1.23;;;;;;;;;;4999691;28;20053;-71
2023/03/06 14:47:20;;;;;;;8.15;0.80;;;;;;;;;;4987570;28;20081;-71
2023/03/06 14:49:49;;;;;;;4.63;0.77;;;;;;;;;;4994956;28;20117;-71
2023/03/06 14:52:19;;;;;;;3.25;0.80;;;;;;;;;;4995796;28;20517;-71
2023/03/06 14:54:46;;;;;;;8.90;0.70;;;;;;;;;;4996964;28;20077;-71
2023/03/06 14:57:15;;;;;;;3.45;0.80;;;;;;;;;;4979134;28;20757;-71